sensor_id;sensor_type;location;lat;lon;timestamp;P1;durP1;ratioP1;P2;durP2;ratioP2
65373;SDS011;52070;53.760;9.678;2023-07-02T00:02:16;8.85;;;2.30;;
65373;SDS011;52070;53.760;9.678;2023-07-02T00:04:44;10.35;;;2.38;;
65373;SDS011;52070;53.760;9.678;2023-07-02T00:07:11;14.43;;;2.90;;
65373;SDS011;52070;53.760;9.678;2023-07-02T00:09:41;9.68;;;2.50;;
65373;SDS011;52070;53.760;9.678;2023-07-02T00:12:08;7.55;;;2.55;;
65373;SDS011;52070;53.760;9.678;2023-07-02T00:14:36;11.68;;;2.55;;
65373;SDS011;52070;53.760;9.678;2023-07-02T00:17:03;9.95;;;2.40;;
65373;SDS011;52070;53.760;9.678;2023-07-02T00:19:30;10.07;;;2.67;;
65373;SDS011;52070;53.760;9.678;2023-07-02T00:21:57;11.45;;;2.33;;
65373;SDS011;52070;53.760;9.678;2023-07-02T00:24:24;6.53;;;2.40;;
65373;SDS011;52070;53.760;9.678;2023-07-02T00:26:52;13.20;;;2.53;;
65373;SDS011;52070;53.760;9.678;2023-07-02T00:29:19;7.15;;;2.17;;
65373;SDS011;52070;53.760;9.678;2023-07-02T00:31:47;7.28;;;2.33;;
65373;SDS011;52070;53.760;9.678;2023-07-02T00:34:14;12.75;;;2.75;;
65373;SDS011;52070;53.760;9.678;2023-07-02T00:36:41;9.95;;;2.33;;
65373;SDS011;52070;53.760;9.678;2023-07-02T00:39:08;6.90;;;2.20;;
65373;SDS011;52070;53.760;9.678;2023-07-02T00:41:37;8.48;;;2.20;;
65373;SDS011;52070;53.760;9.678;2023-07-02T00:44:05;7.90;;;2.58;;
65373;SDS011;52070;53.760;9.678;2023-07-02T00:46:32;9.70;;;2.40;;
65373;SDS011;52070;53.760;9.678;2023-07-02T00:48:59;12.02;;;2.50;;
65373;SDS011;52070;53.760;9.678;2023-07-02T00:51:31;11.30;;;2.53;;
65373;SDS011;52070;53.760;9.678;2023-07-02T00:53:58;12.10;;;2.78;;
65373;SDS011;52070;53.760;9.678;2023-07-02T00:56:26;9.18;;;2.50;;
65373;SDS011;52070;53.760;9.678;2023-07-02T00:58:54;9.80;;;2.60;;
65373;SDS011;52070;53.760;9.678;2023-07-02T01:03:53;8.63;;;2.60;;
65373;SDS011;52070;53.760;9.678;2023-07-02T01:06:22;7.90;;;2.97;;
65373;SDS011;52070;53.760;9.678;2023-07-02T01:08:54;8.07;;;2.50;;
65373;SDS011;52070;53.760;9.678;2023-07-02T01:11:22;13.02;;;3.20;;
65373;SDS011;52070;53.760;9.678;2023-07-02T01:16:19;9.02;;;2.75;;
65373;SDS011;52070;53.760;9.678;2023-07-02T01:18:49;17.25;;;2.92;;
65373;SDS011;52070;53.760;9.678;2023-07-02T01:21:21;19.30;;;3.72;;
65373;SDS011;52070;53.760;9.678;2023-07-02T01:23:50;5.78;;;2.80;;
65373;SDS011;52070;53.760;9.678;2023-07-02T01:26:17;9.27;;;2.72;;
65373;SDS011;52070;53.760;9.678;2023-07-02T01:28:45;9.45;;;3.10;;
65373;SDS011;52070;53.760;9.678;2023-07-02T01:31:12;6.88;;;2.70;;
65373;SDS011;52070;53.760;9.678;2023-07-02T01:33:39;9.68;;;2.70;;
65373;SDS011;52070;53.760;9.678;2023-07-02T01:36:07;9.20;;;3.35;;
65373;SDS011;52070;53.760;9.678;2023-07-02T01:38:36;9.90;;;2.95;;
65373;SDS011;52070;53.760;9.678;2023-07-02T01:41:03;7.78;;;3.00;;
65373;SDS011;52070;53.760;9.678;2023-07-02T01:43:30;7.38;;;2.90;;
65373;SDS011;52070;53.760;9.678;2023-07-02T01:45:57;9.32;;;3.22;;
65373;SDS011;52070;53.760;9.678;2023-07-02T01:48:24;9.27;;;3.53;;
65373;SDS011;52070;53.760;9.678;2023-07-02T01:50:51;6.32;;;3.22;;
65373;SDS011;52070;53.760;9.678;2023-07-02T01:53:19;4.88;;;2.70;;
65373;SDS011;52070;53.760;9.678;2023-07-02T01:55:47;13.45;;;3.40;;
65373;SDS011;52070;53.760;9.678;2023-07-02T01:58:14;8.40;;;3.28;;
65373;SDS011;52070;53.760;9.678;2023-07-02T02:00:41;10.77;;;3.10;;
65373;SDS011;52070;53.760;9.678;2023-07-02T02:03:08;10.10;;;3.47;;
65373;SDS011;52070;53.760;9.678;2023-07-02T02:05:35;7.53;;;3.55;;
65373;SDS011;52070;53.760;9.678;2023-07-02T02:08:02;10.85;;;3.72;;
65373;SDS011;52070;53.760;9.678;2023-07-02T02:10:30;9.43;;;3.65;;
65373;SDS011;52070;53.760;9.678;2023-07-02T02:12:58;9.43;;;3.45;;
65373;SDS011;52070;53.760;9.678;2023-07-02T02:15:25;11.75;;;3.63;;
65373;SDS011;52070;53.760;9.678;2023-07-02T02:17:52;11.63;;;3.88;;
65373;SDS011;52070;53.760;9.678;2023-07-02T02:20:19;13.40;;;3.50;;
65373;SDS011;52070;53.760;9.678;2023-07-02T02:22:46;15.77;;;3.50;;
65373;SDS011;52070;53.760;9.678;2023-07-02T02:25:13;11.80;;;3.70;;
65373;SDS011;52070;53.760;9.678;2023-07-02T02:27:40;12.18;;;3.83;;
65373;SDS011;52070;53.760;9.678;2023-07-02T02:30:10;13.20;;;4.55;;
65373;SDS011;52070;53.760;9.678;2023-07-02T02:32:37;9.57;;;3.92;;
65373;SDS011;52070;53.760;9.678;2023-07-02T02:35:05;10.27;;;4.00;;
65373;SDS011;52070;53.760;9.678;2023-07-02T02:37:33;15.35;;;4.57;;
65373;SDS011;52070;53.760;9.678;2023-07-02T02:40:00;9.75;;;4.00;;
65373;SDS011;52070;53.760;9.678;2023-07-02T02:42:27;8.57;;;4.45;;
65373;SDS011;52070;53.760;9.678;2023-07-02T02:44:54;13.95;;;4.25;;
65373;SDS011;52070;53.760;9.678;2023-07-02T02:47:23;7.22;;;3.50;;
65373;SDS011;52070;53.760;9.678;2023-07-02T02:49:50;14.98;;;4.30;;
65373;SDS011;52070;53.760;9.678;2023-07-02T02:52:17;11.38;;;3.78;;
65373;SDS011;52070;53.760;9.678;2023-07-02T02:54:45;15.70;;;4.32;;
65373;SDS011;52070;53.760;9.678;2023-07-02T02:57:12;17.38;;;4.30;;
65373;SDS011;52070;53.760;9.678;2023-07-02T02:59:39;9.43;;;4.00;;
65373;SDS011;52070;53.760;9.678;2023-07-02T03:02:06;12.77;;;4.13;;
65373;SDS011;52070;53.760;9.678;2023-07-02T03:04:35;16.42;;;4.93;;
65373;SDS011;52070;53.760;9.678;2023-07-02T03:07:05;10.80;;;3.92;;
65373;SDS011;52070;53.760;9.678;2023-07-02T03:09:33;12.95;;;4.18;;
65373;SDS011;52070;53.760;9.678;2023-07-02T03:12:00;12.98;;;3.88;;
65373;SDS011;52070;53.760;9.678;2023-07-02T03:14:27;7.63;;;3.60;;
65373;SDS011;52070;53.760;9.678;2023-07-02T03:16:54;10.57;;;4.15;;
65373;SDS011;52070;53.760;9.678;2023-07-02T03:19:21;10.65;;;4.18;;
65373;SDS011;52070;53.760;9.678;2023-07-02T03:21:49;16.13;;;4.53;;
65373;SDS011;52070;53.760;9.678;2023-07-02T03:24:17;12.13;;;3.72;;
65373;SDS011;52070;53.760;9.678;2023-07-02T03:26:44;12.63;;;4.10;;
65373;SDS011;52070;53.760;9.678;2023-07-02T03:29:11;10.68;;;4.45;;
65373;SDS011;52070;53.760;9.678;2023-07-02T03:31:38;8.77;;;4.05;;
65373;SDS011;52070;53.760;9.678;2023-07-02T03:34:06;12.10;;;4.18;;
65373;SDS011;52070;53.760;9.678;2023-07-02T03:36:34;16.85;;;4.20;;
65373;SDS011;52070;53.760;9.678;2023-07-02T03:39:03;11.10;;;3.80;;
65373;SDS011;52070;53.760;9.678;2023-07-02T03:41:30;10.63;;;4.20;;
65373;SDS011;52070;53.760;9.678;2023-07-02T03:43:57;11.40;;;4.10;;
65373;SDS011;52070;53.760;9.678;2023-07-02T03:46:24;15.95;;;4.57;;
65373;SDS011;52070;53.760;9.678;2023-07-02T03:48:51;8.95;;;4.03;;
65373;SDS011;52070;53.760;9.678;2023-07-02T03:51:18;11.52;;;4.35;;
65373;SDS011;52070;53.760;9.678;2023-07-02T03:53:45;14.93;;;4.13;;
65373;SDS011;52070;53.760;9.678;2023-07-02T03:56:13;22.23;;;4.78;;
65373;SDS011;52070;53.760;9.678;2023-07-02T03:58:40;13.38;;;4.30;;
65373;SDS011;52070;53.760;9.678;2023-07-02T04:01:07;13.43;;;4.47;;
65373;SDS011;52070;53.760;9.678;2023-07-02T04:03:35;14.30;;;4.93;;
65373;SDS011;52070;53.760;9.678;2023-07-02T04:06:02;13.13;;;4.38;;
65373;SDS011;52070;53.760;9.678;2023-07-02T04:08:31;17.65;;;4.82;;
65373;SDS011;52070;53.760;9.678;2023-07-02T04:10:58;17.83;;;5.43;;
65373;SDS011;52070;53.760;9.678;2023-07-02T04:13:26;18.25;;;5.07;;
65373;SDS011;52070;53.760;9.678;2023-07-02T04:15:53;21.38;;;5.57;;
65373;SDS011;52070;53.760;9.678;2023-07-02T04:18:20;26.77;;;5.40;;
65373;SDS011;52070;53.760;9.678;2023-07-02T04:20:47;18.77;;;5.30;;
65373;SDS011;52070;53.760;9.678;2023-07-02T04:23:14;13.93;;;5.22;;
65373;SDS011;52070;53.760;9.678;2023-07-02T04:25:41;17.35;;;5.57;;
65373;SDS011;52070;53.760;9.678;2023-07-02T04:28:08;16.60;;;5.13;;
65373;SDS011;52070;53.760;9.678;2023-07-02T04:30:37;20.08;;;5.10;;
65373;SDS011;52070;53.760;9.678;2023-07-02T04:33:04;22.20;;;5.45;;
65373;SDS011;52070;53.760;9.678;2023-07-02T04:35:32;20.73;;;5.65;;
65373;SDS011;52070;53.760;9.678;2023-07-02T04:37:59;16.27;;;4.75;;
65373;SDS011;52070;53.760;9.678;2023-07-02T04:40:26;24.10;;;5.40;;
65373;SDS011;52070;53.760;9.678;2023-07-02T04:42:53;17.23;;;5.22;;
65373;SDS011;52070;53.760;9.678;2023-07-02T04:45:23;23.02;;;5.53;;
65373;SDS011;52070;53.760;9.678;2023-07-02T04:47:52;24.77;;;5.80;;
65373;SDS011;52070;53.760;9.678;2023-07-02T04:50:19;19.80;;;6.03;;
65373;SDS011;52070;53.760;9.678;2023-07-02T04:52:46;19.92;;;5.05;;
65373;SDS011;52070;53.760;9.678;2023-07-02T04:55:13;23.35;;;5.22;;
65373;SDS011;52070;53.760;9.678;2023-07-02T04:57:40;16.73;;;5.43;;
65373;SDS011;52070;53.760;9.678;2023-07-02T05:00:10;17.35;;;5.47;;
65373;SDS011;52070;53.760;9.678;2023-07-02T05:02:38;32.63;;;6.15;;
65373;SDS011;52070;53.760;9.678;2023-07-02T05:05:08;21.08;;;5.97;;
65373;SDS011;52070;53.760;9.678;2023-07-02T05:07:35;19.38;;;5.50;;
65373;SDS011;52070;53.760;9.678;2023-07-02T05:10:02;24.60;;;6.07;;
65373;SDS011;52070;53.760;9.678;2023-07-02T05:12:30;17.73;;;5.05;;
65373;SDS011;52070;53.760;9.678;2023-07-02T05:14:57;22.85;;;6.57;;
65373;SDS011;52070;53.760;9.678;2023-07-02T05:17:24;19.90;;;5.55;;
65373;SDS011;52070;53.760;9.678;2023-07-02T05:19:51;19.13;;;5.72;;
65373;SDS011;52070;53.760;9.678;2023-07-02T05:22:19;18.20;;;6.35;;
65373;SDS011;52070;53.760;9.678;2023-07-02T05:24:46;23.67;;;6.20;;
65373;SDS011;52070;53.760;9.678;2023-07-02T05:27:14;28.58;;;6.18;;
65373;SDS011;52070;53.760;9.678;2023-07-02T05:29:41;38.08;;;6.97;;
65373;SDS011;52070;53.760;9.678;2023-07-02T05:32:08;23.13;;;6.07;;
65373;SDS011;52070;53.760;9.678;2023-07-02T05:34:35;28.15;;;6.35;;
65373;SDS011;52070;53.760;9.678;2023-07-02T05:37:02;33.75;;;6.80;;
65373;SDS011;52070;53.760;9.678;2023-07-02T05:39:30;30.00;;;6.55;;
65373;SDS011;52070;53.760;9.678;2023-07-02T05:41:57;34.28;;;6.82;;
65373;SDS011;52070;53.760;9.678;2023-07-02T05:44:24;28.20;;;6.47;;
65373;SDS011;52070;53.760;9.678;2023-07-02T05:46:51;26.40;;;6.70;;
65373;SDS011;52070;53.760;9.678;2023-07-02T05:49:18;30.90;;;6.38;;
65373;SDS011;52070;53.760;9.678;2023-07-02T05:51:45;25.88;;;7.00;;
65373;SDS011;52070;53.760;9.678;2023-07-02T05:54:12;25.45;;;6.43;;
65373;SDS011;52070;53.760;9.678;2023-07-02T05:56:41;24.23;;;6.53;;
65373;SDS011;52070;53.760;9.678;2023-07-02T05:59:08;21.20;;;6.20;;
65373;SDS011;52070;53.760;9.678;2023-07-02T06:01:36;21.30;;;6.22;;
65373;SDS011;52070;53.760;9.678;2023-07-02T06:04:03;22.65;;;6.03;;
65373;SDS011;52070;53.760;9.678;2023-07-02T06:06:30;22.23;;;6.10;;
65373;SDS011;52070;53.760;9.678;2023-07-02T06:08:57;20.45;;;5.85;;
65373;SDS011;52070;53.760;9.678;2023-07-02T06:11:24;23.92;;;6.80;;
65373;SDS011;52070;53.760;9.678;2023-07-02T06:13:53;23.95;;;6.30;;
65373;SDS011;52070;53.760;9.678;2023-07-02T06:16:20;31.70;;;7.03;;
65373;SDS011;52070;53.760;9.678;2023-07-02T06:18:47;29.08;;;7.43;;
65373;SDS011;52070;53.760;9.678;2023-07-02T06:21:15;27.20;;;6.65;;
65373;SDS011;52070;53.760;9.678;2023-07-02T06:23:42;25.77;;;7.45;;
65373;SDS011;52070;53.760;9.678;2023-07-02T06:29:52;25.30;;;6.53;;
65373;SDS011;52070;53.760;9.678;2023-07-02T06:36:19;28.98;;;6.30;;
65373;SDS011;52070;53.760;9.678;2023-07-02T06:38:46;24.98;;;6.00;;
65373;SDS011;52070;53.760;9.678;2023-07-02T06:41:13;27.67;;;6.70;;
65373;SDS011;52070;53.760;9.678;2023-07-02T06:43:41;26.45;;;6.60;;
65373;SDS011;52070;53.760;9.678;2023-07-02T06:46:10;27.35;;;6.03;;
65373;SDS011;52070;53.760;9.678;2023-07-02T06:48:38;29.50;;;6.77;;
65373;SDS011;52070;53.760;9.678;2023-07-02T06:51:05;31.50;;;6.13;;
65373;SDS011;52070;53.760;9.678;2023-07-02T06:53:33;24.05;;;6.90;;
65373;SDS011;52070;53.760;9.678;2023-07-02T06:56:00;23.58;;;5.60;;
65373;SDS011;52070;53.760;9.678;2023-07-02T06:58:29;25.13;;;6.75;;
65373;SDS011;52070;53.760;9.678;2023-07-02T07:00:56;24.27;;;6.05;;
65373;SDS011;52070;53.760;9.678;2023-07-02T07:03:25;22.67;;;5.68;;
65373;SDS011;52070;53.760;9.678;2023-07-02T07:05:52;17.65;;;5.68;;
65373;SDS011;52070;53.760;9.678;2023-07-02T07:08:19;20.77;;;5.28;;
65373;SDS011;52070;53.760;9.678;2023-07-02T07:10:47;16.52;;;5.70;;
65373;SDS011;52070;53.760;9.678;2023-07-02T07:13:14;17.02;;;6.25;;
65373;SDS011;52070;53.760;9.678;2023-07-02T07:15:41;18.17;;;5.60;;
65373;SDS011;52070;53.760;9.678;2023-07-02T07:18:08;24.05;;;6.50;;
65373;SDS011;52070;53.760;9.678;2023-07-02T07:20:38;20.27;;;6.05;;
65373;SDS011;52070;53.760;9.678;2023-07-02T07:23:05;20.55;;;5.55;;
65373;SDS011;52070;53.760;9.678;2023-07-02T07:25:32;23.85;;;6.63;;
65373;SDS011;52070;53.760;9.678;2023-07-02T07:27:59;22.92;;;6.80;;
65373;SDS011;52070;53.760;9.678;2023-07-02T07:30:27;27.52;;;7.43;;
65373;SDS011;52070;53.760;9.678;2023-07-02T07:32:54;25.65;;;6.80;;
65373;SDS011;52070;53.760;9.678;2023-07-02T07:35:22;25.58;;;7.07;;
65373;SDS011;52070;53.760;9.678;2023-07-02T07:37:51;29.63;;;6.80;;
65373;SDS011;52070;53.760;9.678;2023-07-02T07:40:18;31.83;;;7.05;;
65373;SDS011;52070;53.760;9.678;2023-07-02T07:42:45;26.30;;;6.32;;
65373;SDS011;52070;53.760;9.678;2023-07-02T07:45:12;30.50;;;6.55;;
65373;SDS011;52070;53.760;9.678;2023-07-02T07:47:39;26.55;;;6.22;;
65373;SDS011;52070;53.760;9.678;2023-07-02T07:50:06;25.67;;;6.43;;
65373;SDS011;52070;53.760;9.678;2023-07-02T07:52:36;18.80;;;5.78;;
65373;SDS011;52070;53.760;9.678;2023-07-02T07:55:06;27.13;;;6.55;;
65373;SDS011;52070;53.760;9.678;2023-07-02T07:57:34;28.50;;;6.93;;
65373;SDS011;52070;53.760;9.678;2023-07-02T08:00:02;23.30;;;6.10;;
65373;SDS011;52070;53.760;9.678;2023-07-02T08:02:31;19.73;;;5.88;;
65373;SDS011;52070;53.760;9.678;2023-07-02T08:04:58;23.42;;;6.60;;
65373;SDS011;52070;53.760;9.678;2023-07-02T08:07:25;23.17;;;6.30;;
65373;SDS011;52070;53.760;9.678;2023-07-02T08:09:52;28.48;;;6.03;;
65373;SDS011;52070;53.760;9.678;2023-07-02T08:12:20;26.33;;;6.05;;
65373;SDS011;52070;53.760;9.678;2023-07-02T08:14:48;26.30;;;6.70;;
65373;SDS011;52070;53.760;9.678;2023-07-02T08:17:15;23.63;;;6.05;;
65373;SDS011;52070;53.760;9.678;2023-07-02T08:19:42;26.48;;;6.85;;
65373;SDS011;52070;53.760;9.678;2023-07-02T08:22:09;23.40;;;6.78;;
65373;SDS011;52070;53.760;9.678;2023-07-02T08:24:37;18.88;;;5.25;;
65373;SDS011;52070;53.760;9.678;2023-07-02T08:27:04;19.23;;;5.43;;
65373;SDS011;52070;53.760;9.678;2023-07-02T08:29:33;19.70;;;5.90;;
65373;SDS011;52070;53.760;9.678;2023-07-02T08:32:00;19.90;;;5.47;;
65373;SDS011;52070;53.760;9.678;2023-07-02T08:34:27;17.50;;;5.85;;
65373;SDS011;52070;53.760;9.678;2023-07-02T08:36:54;17.95;;;5.25;;
65373;SDS011;52070;53.760;9.678;2023-07-02T08:39:21;19.77;;;5.55;;
65373;SDS011;52070;53.760;9.678;2023-07-02T08:41:48;25.08;;;6.38;;
65373;SDS011;52070;53.760;9.678;2023-07-02T08:44:19;16.27;;;5.20;;
65373;SDS011;52070;53.760;9.678;2023-07-02T08:46:49;18.85;;;5.40;;
65373;SDS011;52070;53.760;9.678;2023-07-02T08:49:18;18.45;;;5.55;;
65373;SDS011;52070;53.760;9.678;2023-07-02T08:51:46;15.45;;;5.10;;
65373;SDS011;52070;53.760;9.678;2023-07-02T08:54:13;19.95;;;5.43;;
65373;SDS011;52070;53.760;9.678;2023-07-02T08:56:41;19.05;;;5.45;;
65373;SDS011;52070;53.760;9.678;2023-07-02T08:59:08;12.68;;;3.88;;
65373;SDS011;52070;53.760;9.678;2023-07-02T09:01:44;16.00;;;4.38;;
65373;SDS011;52070;53.760;9.678;2023-07-02T09:04:17;19.58;;;4.45;;
65373;SDS011;52070;53.760;9.678;2023-07-02T09:06:45;13.55;;;4.40;;
65373;SDS011;52070;53.760;9.678;2023-07-02T09:09:12;14.25;;;4.63;;
65373;SDS011;52070;53.760;9.678;2023-07-02T09:11:48;11.77;;;3.92;;
65373;SDS011;52070;53.760;9.678;2023-07-02T09:14:26;15.63;;;3.60;;
65373;SDS011;52070;53.760;9.678;2023-07-02T09:17:03;14.70;;;4.22;;
65373;SDS011;52070;53.760;9.678;2023-07-02T09:19:33;14.70;;;3.97;;
65373;SDS011;52070;53.760;9.678;2023-07-02T09:22:00;15.00;;;3.78;;
65373;SDS011;52070;53.760;9.678;2023-07-02T09:24:28;14.77;;;4.30;;
65373;SDS011;52070;53.760;9.678;2023-07-02T09:26:57;15.68;;;4.53;;
65373;SDS011;52070;53.760;9.678;2023-07-02T09:29:26;17.13;;;4.57;;
65373;SDS011;52070;53.760;9.678;2023-07-02T09:31:54;18.17;;;4.68;;
65373;SDS011;52070;53.760;9.678;2023-07-02T09:34:26;18.52;;;4.07;;
65373;SDS011;52070;53.760;9.678;2023-07-02T09:36:56;20.65;;;4.10;;
65373;SDS011;52070;53.760;9.678;2023-07-02T09:39:27;14.60;;;4.05;;
65373;SDS011;52070;53.760;9.678;2023-07-02T09:41:55;16.58;;;3.50;;
65373;SDS011;52070;53.760;9.678;2023-07-02T09:44:25;16.20;;;3.83;;
65373;SDS011;52070;53.760;9.678;2023-07-02T09:46:56;18.25;;;3.85;;
65373;SDS011;52070;53.760;9.678;2023-07-02T09:49:27;19.05;;;3.83;;
65373;SDS011;52070;53.760;9.678;2023-07-02T09:54:26;15.95;;;3.38;;
65373;SDS011;52070;53.760;9.678;2023-07-02T09:56:54;14.98;;;3.80;;
65373;SDS011;52070;53.760;9.678;2023-07-02T09:59:21;15.35;;;3.58;;
65373;SDS011;52070;53.760;9.678;2023-07-02T10:01:49;10.48;;;3.97;;
65373;SDS011;52070;53.760;9.678;2023-07-02T10:04:17;15.32;;;3.60;;
65373;SDS011;52070;53.760;9.678;2023-07-02T10:06:45;16.88;;;3.50;;
65373;SDS011;52070;53.760;9.678;2023-07-02T10:09:15;14.25;;;3.80;;
65373;SDS011;52070;53.760;9.678;2023-07-02T10:11:42;15.50;;;3.33;;
65373;SDS011;52070;53.760;9.678;2023-07-02T10:14:10;16.48;;;3.28;;
65373;SDS011;52070;53.760;9.678;2023-07-02T10:16:50;15.75;;;3.25;;
65373;SDS011;52070;53.760;9.678;2023-07-02T10:19:18;9.25;;;2.65;;
65373;SDS011;52070;53.760;9.678;2023-07-02T10:21:46;16.15;;;3.30;;
65373;SDS011;52070;53.760;9.678;2023-07-02T10:24:17;11.57;;;2.95;;
65373;SDS011;52070;53.760;9.678;2023-07-02T10:26:54;14.70;;;3.03;;
65373;SDS011;52070;53.760;9.678;2023-07-02T10:29:22;17.85;;;3.10;;
65373;SDS011;52070;53.760;9.678;2023-07-02T10:31:50;10.10;;;2.90;;
65373;SDS011;52070;53.760;9.678;2023-07-02T10:34:28;13.05;;;2.38;;
65373;SDS011;52070;53.760;9.678;2023-07-02T10:36:56;13.85;;;2.55;;
65373;SDS011;52070;53.760;9.678;2023-07-02T10:39:25;15.57;;;2.70;;
65373;SDS011;52070;53.760;9.678;2023-07-02T10:41:52;12.57;;;2.45;;
65373;SDS011;52070;53.760;9.678;2023-07-02T10:44:19;11.18;;;2.08;;
65373;SDS011;52070;53.760;9.678;2023-07-02T10:46:46;11.15;;;2.10;;
65373;SDS011;52070;53.760;9.678;2023-07-02T10:49:17;12.15;;;2.03;;
65373;SDS011;52070;53.760;9.678;2023-07-02T10:51:56;7.75;;;1.95;;
65373;SDS011;52070;53.760;9.678;2023-07-02T10:54:25;8.98;;;2.20;;
65373;SDS011;52070;53.760;9.678;2023-07-02T10:56:56;10.32;;;2.20;;
65373;SDS011;52070;53.760;9.678;2023-07-02T10:59:24;10.95;;;2.20;;
65373;SDS011;52070;53.760;9.678;2023-07-02T11:01:51;10.43;;;2.10;;
65373;SDS011;52070;53.760;9.678;2023-07-02T11:04:18;11.30;;;2.35;;
65373;SDS011;52070;53.760;9.678;2023-07-02T11:06:45;9.38;;;2.25;;
65373;SDS011;52070;53.760;9.678;2023-07-02T11:09:17;10.32;;;2.58;;
65373;SDS011;52070;53.760;9.678;2023-07-02T11:11:51;11.27;;;2.45;;
65373;SDS011;52070;53.760;9.678;2023-07-02T11:14:29;12.48;;;3.00;;
65373;SDS011;52070;53.760;9.678;2023-07-02T11:16:56;15.10;;;2.67;;
65373;SDS011;52070;53.760;9.678;2023-07-02T11:19:25;8.07;;;2.70;;
65373;SDS011;52070;53.760;9.678;2023-07-02T11:21:53;9.55;;;3.00;;
65373;SDS011;52070;53.760;9.678;2023-07-02T11:24:30;9.63;;;2.83;;
65373;SDS011;52070;53.760;9.678;2023-07-02T11:27:00;9.25;;;2.38;;
65373;SDS011;52070;53.760;9.678;2023-07-02T11:29:28;11.00;;;2.67;;
65373;SDS011;52070;53.760;9.678;2023-07-02T11:32:06;11.43;;;2.60;;
65373;SDS011;52070;53.760;9.678;2023-07-02T11:34:34;15.10;;;2.67;;
65373;SDS011;52070;53.760;9.678;2023-07-02T11:37:02;10.57;;;2.42;;
65373;SDS011;52070;53.760;9.678;2023-07-02T11:39:30;8.50;;;2.65;;
65373;SDS011;52070;53.760;9.678;2023-07-02T11:41:57;13.73;;;2.75;;
65373;SDS011;52070;53.760;9.678;2023-07-02T11:44:26;12.13;;;2.60;;
65373;SDS011;52070;53.760;9.678;2023-07-02T11:46:53;11.00;;;2.95;;
65373;SDS011;52070;53.760;9.678;2023-07-02T11:49:22;14.50;;;2.92;;
65373;SDS011;52070;53.760;9.678;2023-07-02T11:51:49;12.00;;;2.60;;
65373;SDS011;52070;53.760;9.678;2023-07-02T11:54:16;14.13;;;3.47;;
65373;SDS011;52070;53.760;9.678;2023-07-02T11:56:44;15.65;;;2.97;;
65373;SDS011;52070;53.760;9.678;2023-07-02T11:59:11;9.90;;;2.40;;
65373;SDS011;52070;53.760;9.678;2023-07-02T12:01:39;10.65;;;2.55;;
65373;SDS011;52070;53.760;9.678;2023-07-02T12:04:06;13.05;;;3.17;;
65373;SDS011;52070;53.760;9.678;2023-07-02T12:06:37;14.10;;;2.72;;
65373;SDS011;52070;53.760;9.678;2023-07-02T12:09:05;21.15;;;3.67;;
65373;SDS011;52070;53.760;9.678;2023-07-02T12:11:32;9.70;;;2.53;;
65373;SDS011;52070;53.760;9.678;2023-07-02T12:13:59;12.55;;;2.60;;
65373;SDS011;52070;53.760;9.678;2023-07-02T12:16:26;9.30;;;2.53;;
65373;SDS011;52070;53.760;9.678;2023-07-02T12:18:54;13.32;;;2.58;;
65373;SDS011;52070;53.760;9.678;2023-07-02T12:21:21;6.75;;;2.35;;
65373;SDS011;52070;53.760;9.678;2023-07-02T12:23:48;12.20;;;2.30;;
65373;SDS011;52070;53.760;9.678;2023-07-02T12:26:15;14.82;;;2.85;;
65373;SDS011;52070;53.760;9.678;2023-07-02T12:28:42;12.82;;;2.22;;
65373;SDS011;52070;53.760;9.678;2023-07-02T12:31:09;10.10;;;2.40;;
65373;SDS011;52070;53.760;9.678;2023-07-02T12:33:38;7.72;;;2.17;;
65373;SDS011;52070;53.760;9.678;2023-07-02T12:36:06;9.57;;;2.13;;
65373;SDS011;52070;53.760;9.678;2023-07-02T12:38:33;11.25;;;2.25;;
65373;SDS011;52070;53.760;9.678;2023-07-02T12:41:00;11.73;;;1.85;;
65373;SDS011;52070;53.760;9.678;2023-07-02T12:43:27;10.60;;;2.08;;
65373;SDS011;52070;53.760;9.678;2023-07-02T12:45:54;11.85;;;2.00;;
65373;SDS011;52070;53.760;9.678;2023-07-02T12:48:21;8.70;;;1.95;;
65373;SDS011;52070;53.760;9.678;2023-07-02T12:50:58;7.30;;;1.63;;
65373;SDS011;52070;53.760;9.678;2023-07-02T12:53:27;7.32;;;1.55;;
65373;SDS011;52070;53.760;9.678;2023-07-02T12:55:54;10.55;;;1.90;;
65373;SDS011;52070;53.760;9.678;2023-07-02T12:58:21;10.45;;;2.10;;
65373;SDS011;52070;53.760;9.678;2023-07-02T13:00:48;9.60;;;2.00;;
65373;SDS011;52070;53.760;9.678;2023-07-02T13:03:16;8.35;;;1.88;;
65373;SDS011;52070;53.760;9.678;2023-07-02T13:05:44;11.88;;;1.85;;
65373;SDS011;52070;53.760;9.678;2023-07-02T13:08:11;10.95;;;2.10;;
65373;SDS011;52070;53.760;9.678;2023-07-02T13:10:39;8.57;;;2.03;;
65373;SDS011;52070;53.760;9.678;2023-07-02T13:13:06;9.50;;;1.70;;
65373;SDS011;52070;53.760;9.678;2023-07-02T13:15:33;7.28;;;1.50;;
65373;SDS011;52070;53.760;9.678;2023-07-02T13:18:01;10.43;;;1.65;;
65373;SDS011;52070;53.760;9.678;2023-07-02T13:20:29;8.43;;;1.77;;
65373;SDS011;52070;53.760;9.678;2023-07-02T13:22:56;10.85;;;1.90;;
65373;SDS011;52070;53.760;9.678;2023-07-02T13:25:24;7.53;;;1.98;;
65373;SDS011;52070;53.760;9.678;2023-07-02T13:27:52;7.07;;;1.58;;
65373;SDS011;52070;53.760;9.678;2023-07-02T13:30:19;12.57;;;2.00;;
65373;SDS011;52070;53.760;9.678;2023-07-02T13:32:47;8.95;;;1.83;;
65373;SDS011;52070;53.760;9.678;2023-07-02T13:35:14;11.07;;;2.00;;
65373;SDS011;52070;53.760;9.678;2023-07-02T13:37:41;12.95;;;2.42;;
65373;SDS011;52070;53.760;9.678;2023-07-02T13:40:08;11.10;;;1.90;;
65373;SDS011;52070;53.760;9.678;2023-07-02T13:42:38;11.48;;;2.45;;
65373;SDS011;52070;53.760;9.678;2023-07-02T13:45:07;10.93;;;2.15;;
65373;SDS011;52070;53.760;9.678;2023-07-02T13:47:35;8.70;;;2.10;;
65373;SDS011;52070;53.760;9.678;2023-07-02T13:50:02;8.25;;;1.95;;
65373;SDS011;52070;53.760;9.678;2023-07-02T13:52:30;8.40;;;2.05;;
65373;SDS011;52070;53.760;9.678;2023-07-02T13:54:57;6.40;;;2.75;;
65373;SDS011;52070;53.760;9.678;2023-07-02T13:57:25;15.15;;;2.15;;
65373;SDS011;52070;53.760;9.678;2023-07-02T13:59:53;7.72;;;1.90;;
65373;SDS011;52070;53.760;9.678;2023-07-02T14:02:20;14.68;;;2.03;;
65373;SDS011;52070;53.760;9.678;2023-07-02T14:04:48;7.70;;;2.55;;
65373;SDS011;52070;53.760;9.678;2023-07-02T14:07:15;14.07;;;2.25;;
65373;SDS011;52070;53.760;9.678;2023-07-02T14:09:42;13.77;;;2.25;;
65373;SDS011;52070;53.760;9.678;2023-07-02T14:12:09;8.30;;;2.10;;
65373;SDS011;52070;53.760;9.678;2023-07-02T14:14:37;13.93;;;2.50;;
65373;SDS011;52070;53.760;9.678;2023-07-02T14:17:06;11.63;;;2.38;;
65373;SDS011;52070;53.760;9.678;2023-07-02T14:19:33;9.82;;;2.20;;
65373;SDS011;52070;53.760;9.678;2023-07-02T14:22:00;11.32;;;2.38;;
65373;SDS011;52070;53.760;9.678;2023-07-02T14:24:27;4.95;;;1.88;;
65373;SDS011;52070;53.760;9.678;2023-07-02T14:26:56;8.00;;;2.05;;
65373;SDS011;52070;53.760;9.678;2023-07-02T14:29:23;15.73;;;2.90;;
65373;SDS011;52070;53.760;9.678;2023-07-02T14:31:50;10.23;;;2.40;;
65373;SDS011;52070;53.760;9.678;2023-07-02T14:34:18;13.82;;;2.13;;
65373;SDS011;52070;53.760;9.678;2023-07-02T14:36:46;11.40;;;2.65;;
65373;SDS011;52070;53.760;9.678;2023-07-02T14:39:13;12.68;;;2.70;;
65373;SDS011;52070;53.760;9.678;2023-07-02T14:41:40;16.83;;;2.60;;
65373;SDS011;52070;53.760;9.678;2023-07-02T14:44:07;8.02;;;2.50;;
65373;SDS011;52070;53.760;9.678;2023-07-02T14:46:34;8.15;;;2.50;;
65373;SDS011;52070;53.760;9.678;2023-07-02T14:49:01;11.05;;;2.67;;
65373;SDS011;52070;53.760;9.678;2023-07-02T14:51:29;11.73;;;2.70;;
65373;SDS011;52070;53.760;9.678;2023-07-02T14:53:56;12.65;;;2.42;;
65373;SDS011;52070;53.760;9.678;2023-07-02T14:56:24;14.80;;;2.85;;
65373;SDS011;52070;53.760;9.678;2023-07-02T14:58:51;14.77;;;2.85;;